Time;durP1;ratioP1;P1;durP2;ratioP2;P2;SDS_P1;SDS_P2;PMS_P1;PMS_P2;Temp;Humidity;BMP_temperature;BMP_pressure;BME280_temperature;BME280_humidity;BME280_pressure;Samples;Min_cycle;Max_cycle;Signal;HPM_P1;HPM_P2
2024/02/11 00:00:16;;;;;;;18.80;11.57;;;10.10;99.90;;;;;;5042090;28;20236;-61
2024/02/11 00:02:46;;;;;;;17.77;11.27;;;10.10;99.90;;;;;;5042467;28;20397;-61
2024/02/11 00:05:14;;;;;;;18.90;11.43;;;10.10;99.90;;;;;;5041369;28;20193;-61
2024/02/11 00:07:43;;;;;;;19.03;11.80;;;10.10;99.90;;;;;;5040967;28;20200;-61
2024/02/11 00:10:13;;;;;;;16.97;11.57;;;10.10;99.90;;;;;;5045732;28;20220;-62
2024/02/11 00:12:42;;;;;;;18.63;12.10;;;10.10;99.90;;;;;;5043856;28;20347;-62
2024/02/11 00:15:10;;;;;;;19.43;11.93;;;10.10;99.90;;;;;;5044923;28;20221;-62
2024/02/11 00:17:39;;;;;;;18.33;11.47;;;10.10;99.90;;;;;;5037343;28;20236;-62
2024/02/11 00:20:10;;;;;;;22.13;11.93;;;10.10;99.90;;;;;;5040204;28;20651;-62
2024/02/11 00:22:39;;;;;;;18.77;12.30;;;10.10;99.90;;;;;;5041422;28;20251;-62
2024/02/11 00:25:10;;;;;;;20.53;12.70;;;10.10;99.90;;;;;;5044499;28;20208;-63
2024/02/11 00:27:42;;;;;;;20.33;12.97;;;10.10;99.90;;;;;;5042367;28;20235;-62
2024/02/11 00:30:12;;;;;;;21.47;12.80;;;10.10;99.90;;;;;;5039572;28;20208;-62
2024/02/11 00:32:40;;;;;;;24.17;13.53;;;10.10;99.90;;;;;;5043598;28;20312;-62
2024/02/11 00:35:12;;;;;;;26.43;14.97;;;10.10;99.90;;;;;;5041297;28;20257;-62
2024/02/11 00:37:40;;;;;;;27.80;16.23;;;10.10;99.90;;;;;;5041388;28;20221;-62
2024/02/11 00:40:10;;;;;;;34.60;18.80;;;10.10;99.90;;;;;;5035502;28;20228;-62
2024/02/11 00:42:38;;;;;;;38.87;18.97;;;10.10;99.90;;;;;;5040205;28;20225;-62
2024/02/11 00:45:07;;;;;;;38.57;19.23;;;10.00;99.90;;;;;;5044180;28;20220;-62
2024/02/11 00:47:36;;;;;;;40.63;19.27;;;9.90;99.90;;;;;;5041230;28;20239;-62
2024/02/11 00:50:05;;;;;;;40.50;19.67;;;9.90;99.90;;;;;;5042104;28;20612;-62
2024/02/11 00:52:34;;;;;;;41.43;19.70;;;9.80;99.90;;;;;;5037844;28;20858;-62
2024/02/11 00:55:03;;;;;;;36.90;17.13;;;9.70;99.90;;;;;;5036801;28;20311;-62
2024/02/11 00:57:33;;;;;;;35.07;17.37;;;9.60;99.90;;;;;;5043676;28;20217;-62
2024/02/11 01:00:01;;;;;;;31.70;14.60;;;9.60;99.90;;;;;;5042112;28;20224;-62
2024/02/11 01:02:32;;;;;;;26.93;13.33;;;9.50;99.90;;;;;;5042613;28;20188;-62
2024/02/11 01:05:00;;;;;;;19.87;11.03;;;9.40;99.90;;;;;;5042186;28;20832;-62
2024/02/11 01:07:30;;;;;;;16.07;9.60;;;9.30;99.90;;;;;;5041022;28;20220;-62
2024/02/11 01:10:03;;;;;;;14.23;9.40;;;9.30;99.90;;;;;;5041517;28;20228;-62
2024/02/11 01:12:31;;;;;;;17.13;8.97;;;9.20;99.90;;;;;;5044684;28;20220;-62
2024/02/11 01:14:59;;;;;;;16.83;9.63;;;9.10;99.90;;;;;;5044200;28;20221;-62
2024/02/11 01:17:29;;;;;;;16.37;9.63;;;9.10;99.90;;;;;;5039546;28;20192;-62
2024/02/11 01:19:57;;;;;;;15.20;9.77;;;9.10;99.90;;;;;;5044080;28;20197;-61
2024/02/11 01:22:26;;;;;;;17.23;10.23;;;9.10;99.90;;;;;;5043437;28;20221;-62
2024/02/11 01:24:54;;;;;;;19.10;10.37;;;9.00;99.90;;;;;;5040433;28;20259;-61
2024/02/11 01:27:23;;;;;;;16.67;10.07;;;9.00;99.90;;;;;;5042890;28;20217;-61
2024/02/11 01:29:52;;;;;;;15.30;9.60;;;8.90;99.90;;;;;;5042779;28;20232;-62
2024/02/11 01:32:23;;;;;;;13.67;8.53;;;8.90;99.90;;;;;;5045559;28;20181;-61
2024/02/11 01:34:53;;;;;;;14.40;8.50;;;8.90;99.90;;;;;;5040691;28;20344;-62
2024/02/11 01:37:22;;;;;;;10.03;7.53;;;8.90;99.90;;;;;;5042871;28;20266;-62
2024/02/11 01:39:50;;;;;;;10.30;7.73;;;8.80;99.90;;;;;;5038889;28;20224;-62
2024/02/11 01:42:18;;;;;;;16.47;8.07;;;8.80;99.90;;;;;;5039581;28;20229;-62
2024/02/11 01:44:47;;;;;;;13.57;7.93;;;8.70;99.90;;;;;;5039226;28;20237;-62
2024/02/11 01:47:16;;;;;;;12.77;7.97;;;8.70;99.90;;;;;;5041398;28;20190;-62
2024/02/11 01:49:48;;;;;;;11.83;7.43;;;8.70;99.90;;;;;;5042480;28;20288;-62
2024/02/11 01:52:16;;;;;;;16.70;8.70;;;8.60;99.90;;;;;;5042915;28;20566;-62
2024/02/11 01:54:46;;;;;;;16.27;9.10;;;8.60;99.90;;;;;;5043202;28;20227;-62
2024/02/11 01:57:15;;;;;;;18.63;9.70;;;8.60;99.90;;;;;;5039030;28;20559;-62
2024/02/11 01:59:43;;;;;;;18.50;9.60;;;8.60;99.90;;;;;;5041602;28;20247;-62
2024/02/11 02:02:17;;;;;;;20.37;10.57;;;8.50;99.90;;;;;;5042660;28;20205;-62
2024/02/11 02:04:46;;;;;;;23.07;10.40;;;8.50;99.90;;;;;;5041904;28;20555;-62
2024/02/11 02:07:16;;;;;;;22.50;10.77;;;8.50;99.90;;;;;;5043059;28;20742;-63
2024/02/11 02:09:44;;;;;;;20.73;10.47;;;8.50;99.90;;;;;;5042016;28;20216;-62
2024/02/11 02:12:14;;;;;;;20.30;10.80;;;8.50;99.90;;;;;;5044068;28;20710;-62
2024/02/11 02:14:43;;;;;;;23.17;10.40;;;8.50;99.90;;;;;;5046579;28;20644;-62
2024/02/11 02:17:12;;;;;;;29.77;12.67;;;8.50;99.90;;;;;;5044275;28;20204;-62
2024/02/11 02:19:40;;;;;;;25.47;12.00;;;8.50;99.90;;;;;;5043893;28;20877;-62
2024/02/11 02:22:11;;;;;;;24.73;11.60;;;8.50;99.90;;;;;;5042065;28;20220;-62
2024/02/11 02:24:39;;;;;;;24.77;11.03;;;8.50;99.90;;;;;;5046838;28;20288;-62
2024/02/11 02:27:07;;;;;;;27.13;11.70;;;8.50;99.90;;;;;;5044468;28;20224;-63
2024/02/11 02:29:36;;;;;;;20.70;11.13;;;8.50;99.90;;;;;;5043680;28;20229;-62
2024/02/11 02:32:04;;;;;;;24.50;11.20;;;8.40;99.90;;;;;;5044623;28;20569;-62
2024/02/11 02:34:33;;;;;;;22.27;11.17;;;8.40;99.90;;;;;;5042618;28;20282;-62
2024/02/11 02:37:01;;;;;;;26.73;11.30;;;8.40;99.90;;;;;;5043749;28;20315;-63
2024/02/11 02:39:31;;;;;;;26.73;11.10;;;8.40;99.90;;;;;;5040359;28;20216;-62
2024/02/11 02:41:59;;;;;;;20.30;10.60;;;8.40;99.90;;;;;;5046311;28;20571;-62
2024/02/11 02:44:27;;;;;;;25.10;11.97;;;8.40;99.90;;;;;;5059374;28;20242;-62
2024/02/11 02:46:55;;;;;;;30.10;11.83;;;8.40;99.90;;;;;;5046757;28;20205;-62
2024/02/11 02:49:24;;;;;;;22.53;11.10;;;8.40;99.90;;;;;;5039399;28;20244;-62
2024/02/11 02:51:52;;;;;;;21.53;11.03;;;8.40;99.90;;;;;;5043172;28;20715;-62
2024/02/11 02:54:20;;;;;;;27.77;11.60;;;8.40;99.90;;;;;;5046072;28;20386;-62
2024/02/11 02:56:49;;;;;;;20.00;10.93;;;8.30;99.90;;;;;;5049335;28;20580;-62
2024/02/11 02:59:17;;;;;;;24.70;10.93;;;8.30;99.90;;;;;;5040961;28;20298;-61
2024/02/11 03:01:47;;;;;;;24.20;11.17;;;8.30;99.90;;;;;;5047033;28;20298;-62
2024/02/11 03:04:16;;;;;;;25.10;11.33;;;8.30;99.90;;;;;;5043373;28;20298;-62
2024/02/11 03:06:44;;;;;;;22.87;10.70;;;8.30;99.90;;;;;;5045549;28;20221;-62
2024/02/11 03:09:12;;;;;;;23.43;9.93;;;8.30;99.90;;;;;;5046281;28;20233;-62
2024/02/11 03:11:41;;;;;;;27.13;11.23;;;8.30;99.90;;;;;;5043785;28;20221;-62
2024/02/11 03:14:11;;;;;;;21.97;10.73;;;8.20;99.90;;;;;;5044025;28;20251;-62
2024/02/11 03:16:40;;;;;;;20.00;10.67;;;8.30;99.90;;;;;;5046155;28;20217;-62
2024/02/11 03:19:09;;;;;;;20.70;10.27;;;8.20;99.90;;;;;;5044404;28;20225;-62
2024/02/11 03:21:38;;;;;;;22.10;10.93;;;8.20;99.90;;;;;;5046903;28;20217;-62
2024/02/11 03:24:07;;;;;;;23.87;10.20;;;8.20;99.90;;;;;;5041506;28;20221;-62
2024/02/11 03:26:36;;;;;;;25.23;9.20;;;8.20;99.90;;;;;;5044830;28;20232;-62
2024/02/11 03:29:04;;;;;;;17.67;8.00;;;8.20;99.90;;;;;;5041865;28;20573;-62
2024/02/11 03:31:34;;;;;;;16.97;7.67;;;8.20;99.90;;;;;;5044513;28;20228;-62
2024/02/11 03:34:05;;;;;;;17.40;6.77;;;8.10;99.90;;;;;;5041194;28;20222;-62
2024/02/11 03:36:34;;;;;;;18.30;6.23;;;8.10;99.90;;;;;;5042484;28;20226;-62
2024/02/11 03:39:04;;;;;;;18.13;6.07;;;8.10;99.90;;;;;;5043227;28;20577;-62
2024/02/11 03:41:35;;;;;;;16.23;5.13;;;8.00;99.90;;;;;;5045246;28;20246;-62
2024/02/11 03:44:04;;;;;;;13.90;4.63;;;8.00;99.90;;;;;;5041857;28;20648;-62
2024/02/11 03:46:34;;;;;;;12.83;4.10;;;8.00;99.90;;;;;;5046365;28;20698;-62
2024/02/11 03:49:03;;;;;;;12.17;4.27;;;8.00;99.90;;;;;;5043212;28;20231;-62
2024/02/11 03:51:34;;;;;;;8.27;4.20;;;8.00;99.90;;;;;;5043884;28;20217;-62
2024/02/11 03:54:03;;;;;;;9.27;4.20;;;8.00;99.90;;;;;;5042587;28;20231;-62
2024/02/11 03:56:34;;;;;;;7.60;3.63;;;7.90;99.90;;;;;;5043053;28;20529;-62
2024/02/11 03:59:03;;;;;;;14.23;4.23;;;7.90;99.90;;;;;;5045312;28;20517;-62
2024/02/11 04:01:35;;;;;;;15.30;4.20;;;7.90;99.90;;;;;;5045301;28;20257;-62
2024/02/11 04:04:06;;;;;;;24.10;3.90;;;7.80;99.90;;;;;;5044019;28;20231;-62
2024/02/11 04:06:34;;;;;;;20.33;4.10;;;7.80;99.90;;;;;;5044628;28;20217;-62
2024/02/11 04:09:04;;;;;;;10.73;4.20;;;7.80;99.90;;;;;;5043049;28;20778;-62
2024/02/11 04:11:32;;;;;;;14.97;4.07;;;7.80;99.90;;;;;;5042394;28;20920;-62
2024/02/11 04:14:02;;;;;;;16.00;3.90;;;7.80;99.90;;;;;;5046223;28;20675;-62
2024/02/11 04:16:44;;;;;;;11.17;3.87;;;7.80;99.90;;;;;;5043604;28;20271;-62
2024/02/11 04:19:12;;;;;;;16.67;4.33;;;7.70;99.90;;;;;;5046732;28;20217;-62
2024/02/11 04:21:42;;;;;;;12.73;4.07;;;7.70;99.90;;;;;;5042052;28;20233;-61
2024/02/11 04:24:12;;;;;;;15.13;4.20;;;7.70;99.90;;;;;;5042326;28;20220;-62
2024/02/11 04:26:41;;;;;;;14.93;4.40;;;7.60;99.90;;;;;;5045343;28;20677;-62
2024/02/11 04:29:10;;;;;;;14.20;4.37;;;7.70;99.90;;;;;;5042635;28;20197;-62
2024/02/11 04:31:40;;;;;;;20.10;5.03;;;7.60;99.90;;;;;;5042930;28;20220;-62
2024/02/11 04:34:10;;;;;;;18.77;4.73;;;7.60;99.90;;;;;;5044632;28;20236;-62
2024/02/11 04:36:39;;;;;;;19.27;4.63;;;7.60;99.90;;;;;;5040231;28;20225;-62
2024/02/11 04:39:08;;;;;;;20.73;4.80;;;7.60;99.90;;;;;;5037157;28;20229;-62
2024/02/11 04:41:39;;;;;;;13.90;4.33;;;7.60;99.90;;;;;;5043606;28;20229;-62
2024/02/11 04:44:08;;;;;;;26.40;4.70;;;7.60;99.90;;;;;;5043508;28;20219;-62
2024/02/11 04:46:38;;;;;;;17.50;5.43;;;7.60;99.90;;;;;;5043652;28;20334;-62
2024/02/11 04:49:07;;;;;;;19.70;5.20;;;7.70;99.90;;;;;;5040705;28;20240;-62
2024/02/11 04:51:37;;;;;;;19.40;5.20;;;7.60;99.90;;;;;;5042199;28;20235;-62
2024/02/11 04:54:05;;;;;;;17.67;5.10;;;7.60;99.90;;;;;;5042047;28;20240;-62
2024/02/11 04:56:33;;;;;;;18.63;5.83;;;7.70;99.90;;;;;;5042215;28;20221;-62
2024/02/11 04:59:04;;;;;;;22.50;5.73;;;7.60;99.90;;;;;;5041491;28;20201;-62
2024/02/11 05:01:32;;;;;;;15.87;5.83;;;7.70;99.90;;;;;;5038295;28;20236;-62
2024/02/11 05:04:03;;;;;;;20.27;6.30;;;7.70;99.90;;;;;;5039473;28;20778;-62
2024/02/11 05:06:32;;;;;;;23.57;6.40;;;7.60;99.90;;;;;;5039534;28;20209;-62
2024/02/11 05:09:04;;;;;;;17.37;6.13;;;7.70;99.90;;;;;;5045401;28;20216;-62
2024/02/11 05:11:32;;;;;;;25.33;6.77;;;7.60;99.90;;;;;;5045845;28;20225;-62
2024/02/11 05:14:01;;;;;;;24.13;6.60;;;7.60;99.90;;;;;;5043285;28;20228;-62
2024/02/11 05:16:29;;;;;;;13.83;6.37;;;7.60;99.90;;;;;;5024581;28;20231;-62
2024/02/11 05:18:59;;;;;;;20.10;6.87;;;7.60;99.90;;;;;;5039414;28;20228;-62
2024/02/11 05:21:27;;;;;;;22.80;7.33;;;7.70;99.90;;;;;;5040106;28;20225;-62
2024/02/11 05:23:57;;;;;;;30.20;8.03;;;7.70;99.90;;;;;;5044251;28;20232;-62
2024/02/11 05:26:27;;;;;;;20.07;7.70;;;7.70;99.90;;;;;;5041473;28;20193;-62
2024/02/11 05:28:57;;;;;;;27.57;8.40;;;7.70;99.90;;;;;;5043152;28;20196;-62
2024/02/11 05:31:26;;;;;;;24.47;8.20;;;7.70;99.90;;;;;;5043087;28;20311;-62
2024/02/11 05:33:55;;;;;;;27.83;8.40;;;7.70;99.90;;;;;;5042673;28;20236;-62
2024/02/11 05:36:23;;;;;;;30.27;8.97;;;7.70;99.90;;;;;;5043848;28;20251;-62
2024/02/11 05:38:51;;;;;;;29.20;9.67;;;7.70;99.90;;;;;;5039675;28;20225;-62
2024/02/11 05:41:22;;;;;;;26.80;8.63;;;7.70;99.90;;;;;;5042659;28;20195;-62
2024/02/11 05:43:51;;;;;;;32.70;10.80;;;7.70;99.90;;;;;;5043456;28;20647;-62
2024/02/11 05:46:19;;;;;;;35.77;9.23;;;7.80;99.90;;;;;;5040464;28;20225;-62
2024/02/11 05:48:47;;;;;;;34.77;10.37;;;7.80;99.90;;;;;;5043163;28;20217;-62
2024/02/11 05:51:16;;;;;;;30.80;10.33;;;7.80;99.90;;;;;;5043356;28;20271;-62
2024/02/11 05:53:45;;;;;;;28.33;10.53;;;7.70;99.90;;;;;;5045546;28;20225;-62
2024/02/11 05:56:13;;;;;;;32.90;10.60;;;7.70;99.90;;;;;;5044785;28;20200;-62
2024/02/11 05:58:43;;;;;;;34.37;10.73;;;7.80;99.90;;;;;;5045683;28;20243;-62
2024/02/11 06:01:13;;;;;;;40.07;11.57;;;7.80;99.90;;;;;;5050241;28;20216;-62
2024/02/11 06:03:42;;;;;;;36.10;11.43;;;7.80;99.90;;;;;;5040861;28;20217;-62
2024/02/11 06:06:10;;;;;;;32.67;11.53;;;7.80;99.90;;;;;;5045059;28;20244;-62
2024/02/11 06:08:42;;;;;;;29.13;11.73;;;7.80;99.90;;;;;;5044222;28;20232;-62
2024/02/11 06:11:11;;;;;;;30.07;11.87;;;7.80;99.90;;;;;;5046297;28;20201;-62
2024/02/11 06:13:40;;;;;;;32.03;12.00;;;7.90;99.90;;;;;;5045631;28;20580;-62
2024/02/11 06:16:12;;;;;;;28.40;12.10;;;7.90;99.90;;;;;;5045755;28;20225;-62
2024/02/11 06:18:41;;;;;;;47.43;12.87;;;7.90;99.90;;;;;;5059329;28;20228;-62
2024/02/11 06:21:10;;;;;;;30.90;12.90;;;7.90;99.90;;;;;;5043212;28;20224;-62
2024/02/11 06:23:41;;;;;;;35.20;12.53;;;7.80;99.90;;;;;;5043821;28;20228;-62
2024/02/11 06:26:09;;;;;;;41.63;13.23;;;7.80;99.90;;;;;;5044503;28;20192;-62
2024/02/11 06:28:39;;;;;;;42.27;14.03;;;7.80;99.90;;;;;;5045366;28;20216;-62
2024/02/11 06:31:09;;;;;;;33.17;12.27;;;7.80;99.90;;;;;;5046124;28;20595;-62
2024/02/11 06:33:38;;;;;;;35.43;13.20;;;7.80;99.90;;;;;;5043533;28;20253;-62
2024/02/11 06:36:07;;;;;;;35.10;12.43;;;7.80;99.90;;;;;;5046486;28;20659;-62
2024/02/11 06:38:38;;;;;;;35.47;13.00;;;7.80;99.90;;;;;;5043393;28;20677;-62
2024/02/11 06:41:06;;;;;;;34.93;13.30;;;7.80;99.90;;;;;;5048142;28;20189;-62
2024/02/11 06:43:35;;;;;;;41.13;12.73;;;7.80;99.90;;;;;;5043796;28;20217;-63
2024/02/11 06:46:04;;;;;;;34.43;13.73;;;7.80;99.90;;;;;;5046297;28;20296;-62
2024/02/11 06:48:33;;;;;;;33.57;12.97;;;7.80;99.90;;;;;;5044839;28;20675;-62
2024/02/11 06:51:02;;;;;;;34.43;13.33;;;7.80;99.90;;;;;;5044781;28;20214;-62
2024/02/11 06:53:30;;;;;;;37.47;13.63;;;7.80;99.90;;;;;;5043040;28;20193;-62
2024/02/11 06:55:59;;;;;;;39.63;12.80;;;7.80;99.90;;;;;;5042520;28;20272;-63
2024/02/11 06:58:27;;;;;;;37.40;14.10;;;7.80;99.90;;;;;;5044966;28;20227;-62
2024/02/11 07:00:56;;;;;;;39.40;12.33;;;7.80;99.90;;;;;;5044778;28;20228;-62
2024/02/11 07:03:28;;;;;;;47.40;14.10;;;7.80;99.90;;;;;;5045013;28;20315;-62
2024/02/11 07:05:58;;;;;;;42.27;13.63;;;7.80;99.90;;;;;;5045276;28;20310;-62
2024/02/11 07:08:27;;;;;;;44.57;13.27;;;7.80;99.90;;;;;;5039197;28;21087;-62
2024/02/11 07:10:55;;;;;;;38.33;12.50;;;7.80;99.90;;;;;;5042798;28;20235;-61
2024/02/11 07:13:23;;;;;;;36.27;12.83;;;7.80;99.90;;;;;;5044849;28;21225;-62
2024/02/11 07:15:52;;;;;;;41.27;13.40;;;7.90;99.90;;;;;;5043868;28;20646;-62
2024/02/11 07:18:20;;;;;;;45.43;13.23;;;7.90;99.90;;;;;;5044777;28;20242;-62
2024/02/11 07:20:49;;;;;;;42.67;12.60;;;7.90;99.90;;;;;;5045427;28;20228;-62
2024/02/11 07:23:20;;;;;;;35.17;13.20;;;7.90;99.90;;;;;;5044476;28;20255;-61
2024/02/11 07:25:48;;;;;;;46.40;13.63;;;7.90;99.90;;;;;;5040989;28;20217;-62
2024/02/11 07:28:16;;;;;;;40.27;13.97;;;7.90;99.90;;;;;;5043007;28;20227;-62
2024/02/11 07:30:45;;;;;;;40.23;13.03;;;7.90;99.90;;;;;;5046765;28;20606;-62
2024/02/11 07:33:14;;;;;;;35.50;12.47;;;8.00;99.90;;;;;;5043809;28;20220;-62
2024/02/11 07:35:42;;;;;;;34.37;12.97;;;8.00;99.90;;;;;;5044768;28;20333;-63
2024/02/11 07:38:11;;;;;;;47.83;13.30;;;8.00;99.90;;;;;;5039845;28;20212;-62
2024/02/11 07:40:41;;;;;;;46.77;12.70;;;8.10;99.90;;;;;;5043835;28;20225;-63
2024/02/11 07:43:10;;;;;;;39.57;12.20;;;8.10;99.90;;;;;;5040727;28;20232;-63
2024/02/11 07:45:41;;;;;;;53.17;14.10;;;8.10;99.90;;;;;;5046996;28;20818;-62
2024/02/11 07:48:09;;;;;;;47.83;13.50;;;8.10;99.90;;;;;;5041382;28;20671;-62
2024/02/11 07:50:37;;;;;;;40.90;14.07;;;8.10;99.90;;;;;;5039133;28;20257;-62
2024/02/11 07:53:06;;;;;;;40.73;12.60;;;8.10;99.90;;;;;;5042821;28;20203;-62
2024/02/11 07:55:34;;;;;;;40.67;13.40;;;8.10;99.90;;;;;;5041967;28;20298;-62
2024/02/11 07:58:04;;;;;;;36.40;12.33;;;8.20;99.90;;;;;;5041886;28;20699;-62
2024/02/11 08:00:32;;;;;;;41.87;12.67;;;8.20;99.90;;;;;;5042835;28;20235;-63
2024/02/11 08:03:01;;;;;;;43.27;11.87;;;8.20;99.90;;;;;;5047199;28;20629;-62
2024/02/11 08:05:30;;;;;;;38.73;11.80;;;8.20;99.90;;;;;;5041827;28;20342;-62
2024/02/11 08:07:58;;;;;;;37.23;11.60;;;8.30;99.90;;;;;;5045083;28;20300;-62
2024/02/11 08:10:26;;;;;;;40.40;12.17;;;8.30;99.90;;;;;;5043626;28;20221;-62
2024/02/11 08:12:55;;;;;;;39.27;12.17;;;8.30;99.90;;;;;;5040756;28;20311;-62
2024/02/11 08:15:25;;;;;;;44.70;11.63;;;8.30;99.90;;;;;;5041678;28;20326;-62
2024/02/11 08:17:53;;;;;;;31.33;10.60;;;8.30;99.90;;;;;;5043596;28;20217;-63
2024/02/11 08:20:22;;;;;;;33.53;11.47;;;8.30;99.90;;;;;;5042462;28;20211;-63
2024/02/11 08:22:52;;;;;;;33.23;11.40;;;8.30;99.90;;;;;;5044363;28;20680;-63
2024/02/11 08:25:21;;;;;;;36.30;12.23;;;8.40;99.90;;;;;;5046277;28;20217;-62
2024/02/11 08:27:49;;;;;;;37.60;11.80;;;8.40;99.90;;;;;;5044946;28;20221;-62
2024/02/11 08:30:20;;;;;;;30.13;11.57;;;8.40;99.90;;;;;;5041642;28;20228;-62
2024/02/11 08:32:54;;;;;;;38.87;12.70;;;8.40;99.90;;;;;;5043260;28;20220;-62
2024/02/11 08:35:23;;;;;;;28.37;11.93;;;8.40;99.90;;;;;;5045513;28;20293;-63
2024/02/11 08:37:52;;;;;;;40.63;11.83;;;8.40;99.90;;;;;;5044363;28;20235;-63
2024/02/11 08:40:23;;;;;;;35.70;11.97;;;8.40;99.90;;;;;;5040396;28;21488;-63
2024/02/11 08:42:52;;;;;;;38.07;12.20;;;8.40;99.90;;;;;;5039320;28;20224;-63
2024/02/11 08:45:20;;;;;;;38.87;11.83;;;8.40;99.90;;;;;;5042552;28;20224;-62
2024/02/11 08:47:50;;;;;;;31.67;11.03;;;8.50;99.90;;;;;;5042917;28;20224;-63
2024/02/11 08:50:20;;;;;;;39.13;11.37;;;8.50;99.90;;;;;;5046678;28;20287;-62
2024/02/11 08:52:49;;;;;;;30.20;9.73;;;8.50;99.90;;;;;;5043766;28;20283;-63
2024/02/11 08:55:18;;;;;;;23.83;9.93;;;8.50;99.90;;;;;;5041500;28;20262;-62
2024/02/11 08:57:47;;;;;;;33.33;10.00;;;8.50;99.90;;;;;;5043483;28;20224;-63
2024/02/11 09:00:18;;;;;;;27.40;9.23;;;8.50;99.90;;;;;;5036263;28;20245;-62
2024/02/11 09:02:48;;;;;;;30.70;9.20;;;8.50;99.90;;;;;;5027943;28;20620;-62
2024/02/11 09:05:16;;;;;;;30.90;9.53;;;8.60;99.90;;;;;;5040637;28;20599;-63
2024/02/11 09:07:46;;;;;;;36.73;9.67;;;8.60;99.90;;;;;;5045373;28;20196;-63
2024/02/11 09:10:15;;;;;;;29.47;9.73;;;8.70;99.90;;;;;;5040843;28;20236;-62
2024/02/11 09:12:44;;;;;;;27.03;9.63;;;8.70;99.90;;;;;;5043440;28;20220;-62
2024/02/11 09:15:15;;;;;;;30.83;8.50;;;8.70;99.90;;;;;;5040050;28;20216;-62
2024/02/11 09:17:46;;;;;;;31.70;8.73;;;8.80;99.90;;;;;;5045924;28;20228;-63
2024/02/11 09:20:15;;;;;;;24.57;8.37;;;8.80;99.90;;;;;;5044853;28;20686;-63
2024/02/11 09:22:45;;;;;;;26.53;8.07;;;8.90;99.90;;;;;;5048092;28;20269;-62
2024/02/11 09:25:14;;;;;;;28.03;8.37;;;9.00;99.90;;;;;;5046535;28;21272;-62
2024/02/11 09:27:43;;;;;;;27.33;8.37;;;9.10;99.90;;;;;;5048002;28;20212;-63
2024/02/11 09:30:15;;;;;;;25.00;7.93;;;9.10;99.90;;;;;;5048865;28;20749;-63
2024/02/11 09:32:46;;;;;;;17.73;7.27;;;9.20;99.90;;;;;;5043112;28;20246;-63
2024/02/11 09:35:17;;;;;;;28.17;7.27;;;9.10;99.90;;;;;;5046571;28;20221;-63
2024/02/11 09:37:49;;;;;;;22.07;7.10;;;9.10;99.90;;;;;;5048063;28;20197;-62
2024/02/11 09:40:18;;;;;;;22.77;7.37;;;9.20;99.90;;;;;;5044462;28;20672;-62
2024/02/11 09:42:49;;;;;;;20.33;7.13;;;9.30;99.90;;;;;;5044462;28;20722;-62
2024/02/11 09:45:18;;;;;;;21.07;6.23;;;9.50;99.90;;;;;;5047063;28;20216;-63
2024/02/11 09:47:50;;;;;;;21.67;6.20;;;9.70;99.90;;;;;;5041942;28;20233;-62
2024/02/11 09:50:20;;;;;;;19.70;6.30;;;9.90;99.90;;;;;;5039699;28;20197;-63
2024/02/11 09:52:51;;;;;;;14.40;5.63;;;10.00;99.90;;;;;;5047414;28;20193;-62
2024/02/11 09:55:21;;;;;;;18.80;5.63;;;10.00;99.90;;;;;;5045714;28;20270;-63
2024/02/11 09:57:50;;;;;;;13.93;5.30;;;10.00;99.90;;;;;;5045048;28;20229;-63
2024/02/11 10:00:20;;;;;;;16.23;6.37;;;10.10;99.90;;;;;;5046376;28;20262;-62
2024/02/11 10:02:50;;;;;;;20.57;6.17;;;10.20;99.90;;;;;;5063805;28;20251;-62
2024/02/11 10:05:24;;;;;;;23.23;5.90;;;10.30;99.90;;;;;;5045944;28;20232;-62
2024/02/11 10:07:56;;;;;;;20.57;5.57;;;10.40;99.90;;;;;;5046253;28;20208;-63
2024/02/11 10:10:25;;;;;;;13.03;4.70;;;10.50;99.90;;;;;;5046475;28;20220;-62
2024/02/11 10:12:57;;;;;;;15.63;4.33;;;10.40;99.90;;;;;;5046240;28;20232;-62
2024/02/11 10:15:26;;;;;;;20.63;5.10;;;10.40;99.90;;;;;;5046153;28;20737;-63
2024/02/11 10:17:55;;;;;;;17.37;5.20;;;10.50;99.90;;;;;;5046215;28;20220;-62
2024/02/11 10:20:24;;;;;;;16.27;5.07;;;10.50;99.90;;;;;;5044014;28;20294;-63
2024/02/11 10:22:54;;;;;;;11.30;4.47;;;10.60;99.90;;;;;;5046066;28;20675;-63
2024/02/11 10:25:23;;;;;;;11.07;4.50;;;10.60;99.90;;;;;;5044870;28;20220;-62
2024/02/11 10:27:52;;;;;;;15.03;4.87;;;10.80;99.90;;;;;;5048094;28;20256;-63
2024/02/11 10:30:20;;;;;;;11.83;4.50;;;11.00;99.90;;;;;;5046683;28;20228;-63
2024/02/11 10:32:49;;;;;;;15.43;5.27;;;11.10;99.90;;;;;;5036877;28;20266;-62
2024/02/11 10:35:18;;;;;;;15.00;5.00;;;11.00;99.90;;;;;;5026552;28;20229;-62
2024/02/11 10:37:48;;;;;;;11.47;4.20;;;11.00;99.90;;;;;;5047543;28;20197;-62
2024/02/11 10:40:25;;;;;;;14.90;4.80;;;10.90;99.90;;;;;;5044409;28;20220;-62
2024/02/11 10:42:55;;;;;;;11.10;3.90;;;10.90;99.90;;;;;;5044326;28;20234;-62
2024/02/11 10:45:25;;;;;;;13.77;3.70;;;10.70;99.90;;;;;;5042763;28;20216;-62
2024/02/11 10:47:53;;;;;;;9.27;3.90;;;10.80;99.90;;;;;;5044716;28;20320;-62
2024/02/11 10:50:22;;;;;;;12.83;4.10;;;10.80;99.90;;;;;;5045645;28;20270;-63
2024/02/11 10:52:55;;;;;;;13.83;3.80;;;10.80;99.90;;;;;;5044595;28;20258;-63
2024/02/11 10:55:29;;;;;;;12.87;3.97;;;10.80;99.90;;;;;;5045469;28;20220;-63
2024/02/11 10:58:00;;;;;;;17.90;4.87;;;10.70;99.90;;;;;;5042555;28;20217;-62
2024/02/11 11:00:31;;;;;;;14.23;4.50;;;10.70;99.90;;;;;;5042363;28;20217;-62
2024/02/11 11:03:05;;;;;;;10.30;3.77;;;10.60;99.90;;;;;;5044683;28;20252;-62
2024/02/11 11:05:38;;;;;;;10.97;3.57;;;10.60;99.90;;;;;;5042975;28;20224;-62
2024/02/11 11:08:08;;;;;;;11.37;3.27;;;10.60;99.90;;;;;;5042909;28;20763;-62
2024/02/11 11:10:38;;;;;;;8.80;3.00;;;10.60;99.90;;;;;;5037082;28;20222;-63
2024/02/11 11:13:09;;;;;;;10.37;3.30;;;10.60;99.90;;;;;;5044142;28;20228;-62
2024/02/11 11:15:38;;;;;;;6.67;2.80;;;10.50;99.90;;;;;;5045757;28;20237;-62
2024/02/11 11:18:10;;;;;;;5.40;2.70;;;10.60;99.90;;;;;;5041087;28;20228;-63
2024/02/11 11:20:51;;;;;;;6.37;2.80;;;10.70;99.90;;;;;;5045179;28;20310;-62
2024/02/11 11:23:20;;;;;;;9.50;3.30;;;10.80;99.90;;;;;;5042515;28;20513;-62
2024/02/11 11:25:55;;;;;;;9.00;3.60;;;10.80;99.90;;;;;;5045428;28;20192;-63
2024/02/11 11:28:29;;;;;;;7.07;3.03;;;10.90;99.90;;;;;;5042473;28;20320;-62
2024/02/11 11:30:57;;;;;;;8.07;3.20;;;10.90;99.90;;;;;;5045869;28;20706;-62
2024/02/11 11:33:27;;;;;;;12.10;3.17;;;10.90;99.90;;;;;;5042339;28;20222;-63
2024/02/11 11:36:01;;;;;;;10.00;3.13;;;10.80;99.90;;;;;;5041863;28;20220;-63
2024/02/11 11:38:30;;;;;;;12.50;3.10;;;10.90;99.90;;;;;;5043363;28;20276;-63
2024/02/11 11:41:00;;;;;;;6.33;2.70;;;10.90;99.90;;;;;;5044290;28;20293;-62
2024/02/11 11:43:30;;;;;;;5.40;2.63;;;11.10;99.90;;;;;;5042509;28;20339;-63
2024/02/11 11:45:59;;;;;;;9.47;2.90;;;11.30;99.90;;;;;;5041358;28;20220;-62
2024/02/11 11:48:28;;;;;;;7.27;2.50;;;11.50;99.90;;;;;;5044597;28;20259;-63
2024/02/11 11:50:58;;;;;;;6.17;2.50;;;11.50;99.90;;;;;;5047920;28;20217;-62
2024/02/11 11:53:26;;;;;;;7.30;2.33;;;11.40;99.90;;;;;;5039915;28;20185;-62
2024/02/11 11:55:57;;;;;;;7.03;2.57;;;11.30;99.90;;;;;;5044797;28;20203;-62
2024/02/11 11:58:28;;;;;;;8.33;2.90;;;11.10;99.90;;;;;;5041202;28;20227;-62
2024/02/11 12:01:00;;;;;;;10.17;2.53;;;11.00;99.90;;;;;;5042811;28;20230;-62
2024/02/11 12:03:29;;;;;;;8.17;2.97;;;10.90;99.90;;;;;;5043624;28;20236;-62
2024/02/11 12:06:06;;;;;;;9.20;3.27;;;10.90;99.90;;;;;;5056916;28;20632;-62
2024/02/11 12:08:34;;;;;;;10.30;3.30;;;10.90;99.90;;;;;;5014414;28;20629;-62
2024/02/11 12:11:07;;;;;;;10.50;3.57;;;10.90;99.90;;;;;;5015159;28;20202;-62
2024/02/11 12:13:38;;;;;;;11.87;2.67;;;10.80;99.90;;;;;;5014609;28;20334;-62
2024/02/11 12:16:13;;;;;;;6.30;2.83;;;10.80;99.90;;;;;;5009997;28;20233;-62
2024/02/11 12:18:43;;;;;;;9.70;2.70;;;10.90;99.90;;;;;;5011787;28;20225;-62
2024/02/11 12:21:13;;;;;;;4.27;2.63;;;10.90;99.90;;;;;;5015802;28;20279;-62
2024/02/11 12:23:42;;;;;;;8.33;2.90;;;11.10;99.90;;;;;;5011065;28;20838;-63
2024/02/11 12:26:10;;;;;;;9.33;3.30;;;11.30;99.90;;;;;;5015464;28;20213;-63
2024/02/11 12:28:40;;;;;;;6.93;2.67;;;11.30;99.90;;;;;;5031242;28;20223;-63
2024/02/11 12:31:10;;;;;;;9.30;2.77;;;11.40;99.90;;;;;;5029314;28;20677;-63
2024/02/11 12:33:40;;;;;;;7.67;2.67;;;11.40;99.90;;;;;;5031031;28;20679;-62
2024/02/11 12:36:10;;;;;;;3.93;2.23;;;11.60;99.90;;;;;;5037054;28;20224;-63
2024/02/11 12:38:42;;;;;;;6.13;2.00;;;11.90;99.90;;;;;;5033244;28;20283;-63
2024/02/11 12:41:11;;;;;;;4.47;2.00;;;12.00;99.90;;;;;;5035855;28;20220;-62
2024/02/11 12:43:42;;;;;;;4.47;2.50;;;12.00;99.90;;;;;;5013782;28;20257;-63
2024/02/11 12:46:10;;;;;;;6.00;2.13;;;11.80;99.90;;;;;;5027115;28;20229;-63
2024/02/11 12:48:40;;;;;;;4.83;2.03;;;11.70;99.90;;;;;;5020694;28;20225;-63
2024/02/11 12:51:10;;;;;;;10.43;2.30;;;11.50;99.90;;;;;;5014799;28;20225;-63